Time;durP1;ratioP1;P1;durP2;ratioP2;P2;SDS_P1;SDS_P2;PMS_P1;PMS_P2;Temp;Humidity;BMP_temperature;BMP_pressure;BME280_temperature;BME280_humidity;BME280_pressure;Samples;Min_cycle;Max_cycle;Signal;HPM_P1;HPM_P2
2022/11/09 00:01:21;;;;;;;4.47;2.72;;;;;;;;;;5085825;28;20474;-57
2022/11/09 00:03:46;;;;;;;4.50;2.70;;;;;;;;;;5087234;28;20020;-58
2022/11/09 00:06:12;;;;;;;5.68;2.35;;;;;;;;;;5100356;27;20047;-58
2022/11/09 00:08:37;;;;;;;4.43;2.80;;;;;;;;;;5074344;28;20020;-58
2022/11/09 00:11:05;;;;;;;5.25;2.63;;;;;;;;;;5078663;28;20019;-58
2022/11/09 00:13:31;;;;;;;6.38;2.60;;;;;;;;;;5083803;28;20025;-58
2022/11/09 00:15:59;;;;;;;6.18;2.90;;;;;;;;;;5089078;28;20016;-58
2022/11/09 00:18:25;;;;;;;4.55;2.63;;;;;;;;;;5069392;28;20060;-57
2022/11/09 00:20:50;;;;;;;5.70;2.85;;;;;;;;;;5079323;28;20031;-57
2022/11/09 00:23:15;;;;;;;8.27;3.10;;;;;;;;;;5078995;28;20023;-57
2022/11/09 00:25:41;;;;;;;7.40;2.83;;;;;;;;;;5082989;28;20414;-57
2022/11/09 00:28:06;;;;;;;5.05;2.60;;;;;;;;;;5079536;28;20275;-58
2022/11/09 00:30:31;;;;;;;7.50;3.17;;;;;;;;;;5074933;28;20157;-57
2022/11/09 00:32:56;;;;;;;8.43;2.60;;;;;;;;;;5081625;28;20059;-57
2022/11/09 00:35:22;;;;;;;4.18;2.50;;;;;;;;;;5083351;28;20048;-58
2022/11/09 00:37:47;;;;;;;5.78;2.80;;;;;;;;;;5072254;28;20023;-57
2022/11/09 00:40:12;;;;;;;6.95;2.80;;;;;;;;;;5073675;28;20012;-57
2022/11/09 00:42:37;;;;;;;6.97;2.60;;;;;;;;;;5075283;28;20023;-57
2022/11/09 00:45:03;;;;;;;5.47;2.72;;;;;;;;;;5072672;28;20024;-57
2022/11/09 00:47:28;;;;;;;5.70;2.38;;;;;;;;;;5088996;28;20093;-57
2022/11/09 00:49:54;;;;;;;7.22;3.10;;;;;;;;;;5081796;28;20474;-58
2022/11/09 00:52:19;;;;;;;3.83;2.33;;;;;;;;;;5073704;28;20692;-58
2022/11/09 00:54:44;;;;;;;4.20;2.47;;;;;;;;;;5091898;28;20015;-57
2022/11/09 00:57:11;;;;;;;5.10;2.47;;;;;;;;;;5074241;28;20020;-57
2022/11/09 00:59:36;;;;;;;5.53;2.60;;;;;;;;;;5083349;28;20024;-56
2022/11/09 01:02:01;;;;;;;5.20;2.55;;;;;;;;;;5081249;28;20030;-57
2022/11/09 01:04:26;;;;;;;4.88;2.50;;;;;;;;;;5092094;28;20091;-57
2022/11/09 01:06:51;;;;;;;3.60;2.50;;;;;;;;;;5083089;28;20043;-57
2022/11/09 01:09:17;;;;;;;5.85;2.90;;;;;;;;;;5090373;28;20016;-57
2022/11/09 01:11:42;;;;;;;6.30;2.60;;;;;;;;;;5075741;28;20035;-57
2022/11/09 01:14:08;;;;;;;6.20;2.42;;;;;;;;;;5077617;28;20642;-57
2022/11/09 01:16:33;;;;;;;7.10;2.58;;;;;;;;;;5077786;28;20628;-57
2022/11/09 01:18:58;;;;;;;6.43;2.30;;;;;;;;;;5081413;28;20050;-57
2022/11/09 01:21:23;;;;;;;6.53;2.45;;;;;;;;;;5085616;28;20478;-56
2022/11/09 01:23:49;;;;;;;4.75;2.35;;;;;;;;;;5073418;28;20051;-57
2022/11/09 01:26:14;;;;;;;4.30;2.42;;;;;;;;;;5079174;28;20024;-58
2022/11/09 01:28:39;;;;;;;5.05;2.20;;;;;;;;;;5077153;28;20271;-57
2022/11/09 01:31:15;;;;;;;3.55;2.10;;;;;;;;;;5093044;28;20094;-57
2022/11/09 01:33:40;;;;;;;5.85;2.45;;;;;;;;;;5085508;28;20019;-57
2022/11/09 01:36:08;;;;;;;5.53;2.33;;;;;;;;;;5075429;28;20851;-57
2022/11/09 01:38:34;;;;;;;5.22;2.40;;;;;;;;;;5082270;28;20024;-57
2022/11/09 01:40:59;;;;;;;4.88;2.38;;;;;;;;;;5080872;28;20039;-57
2022/11/09 01:43:25;;;;;;;3.95;2.35;;;;;;;;;;5078318;28;20387;-57
2022/11/09 01:45:50;;;;;;;4.88;2.08;;;;;;;;;;5077462;28;20078;-55
2022/11/09 01:48:16;;;;;;;4.45;2.22;;;;;;;;;;5086662;28;20159;-57
2022/11/09 01:50:46;;;;;;;3.78;2.03;;;;;;;;;;5083147;28;20024;-57
2022/11/09 01:53:16;;;;;;;3.05;1.90;;;;;;;;;;5088459;28;20102;-57
2022/11/09 01:55:41;;;;;;;2.75;1.90;;;;;;;;;;5081642;28;20029;-57
2022/11/09 01:58:07;;;;;;;5.88;2.35;;;;;;;;;;5084105;28;20044;-57
2022/11/09 02:00:33;;;;;;;4.25;2.08;;;;;;;;;;5084325;28;20017;-57
2022/11/09 02:03:08;;;;;;;4.47;1.90;;;;;;;;;;5077624;28;20073;-56
2022/11/09 02:05:34;;;;;;;3.65;2.00;;;;;;;;;;5081926;28;21810;-57
2022/11/09 02:08:00;;;;;;;2.25;1.85;;;;;;;;;;5088044;28;20037;-57
2022/11/09 02:10:28;;;;;;;3.63;2.08;;;;;;;;;;5112448;27;20103;-57
2022/11/09 02:12:53;;;;;;;4.57;1.98;;;;;;;;;;5093113;28;20086;-58
2022/11/09 02:15:18;;;;;;;4.03;2.08;;;;;;;;;;5078118;28;20114;-57
2022/11/09 02:17:43;;;;;;;2.75;1.85;;;;;;;;;;5078847;28;20026;-57
2022/11/09 02:20:12;;;;;;;3.72;1.85;;;;;;;;;;5067576;28;20020;-57
2022/11/09 02:22:37;;;;;;;5.18;2.03;;;;;;;;;;5123012;27;20038;-57
2022/11/09 02:25:03;;;;;;;3.63;2.10;;;;;;;;;;5076819;28;20031;-57
2022/11/09 02:27:28;;;;;;;4.43;2.30;;;;;;;;;;5079915;28;20587;-57
2022/11/09 02:29:53;;;;;;;4.15;2.00;;;;;;;;;;5082009;28;20088;-57
2022/11/09 02:32:19;;;;;;;3.65;1.77;;;;;;;;;;5076552;28;20173;-57
2022/11/09 02:34:44;;;;;;;7.03;2.20;;;;;;;;;;5082962;28;20024;-57
2022/11/09 02:37:09;;;;;;;3.13;1.88;;;;;;;;;;5085181;28;20708;-57
2022/11/09 02:39:35;;;;;;;3.08;1.85;;;;;;;;;;5091731;28;20065;-57
2022/11/09 02:42:12;;;;;;;4.57;2.00;;;;;;;;;;5086396;28;20015;-57
2022/11/09 02:44:39;;;;;;;4.40;1.83;;;;;;;;;;5090764;28;20058;-57
2022/11/09 02:47:04;;;;;;;4.47;2.00;;;;;;;;;;5068476;28;20170;-57
2022/11/09 02:49:30;;;;;;;4.35;2.17;;;;;;;;;;5074817;28;20100;-57
2022/11/09 02:51:55;;;;;;;4.25;2.00;;;;;;;;;;5084874;28;20130;-57
2022/11/09 02:54:20;;;;;;;4.20;2.03;;;;;;;;;;5089498;28;20164;-57
2022/11/09 02:56:45;;;;;;;3.92;1.92;;;;;;;;;;5086006;28;20027;-57
2022/11/09 02:59:10;;;;;;;4.32;1.85;;;;;;;;;;5080932;28;20031;-57
2022/11/09 03:01:36;;;;;;;2.92;1.90;;;;;;;;;;5080314;28;20033;-57
2022/11/09 03:04:01;;;;;;;4.80;2.13;;;;;;;;;;5075575;28;20496;-57
2022/11/09 03:06:35;;;;;;;2.70;1.90;;;;;;;;;;5079962;28;20440;-57
2022/11/09 03:09:01;;;;;;;3.63;1.92;;;;;;;;;;5116266;27;20043;-57
2022/11/09 03:11:26;;;;;;;4.43;1.98;;;;;;;;;;5081923;28;20036;-57
2022/11/09 03:13:52;;;;;;;3.15;1.80;;;;;;;;;;5074316;28;20019;-57
2022/11/09 03:16:17;;;;;;;3.33;1.90;;;;;;;;;;5077055;28;20479;-57
2022/11/09 03:18:42;;;;;;;3.15;2.00;;;;;;;;;;5087929;28;20379;-57
2022/11/09 03:21:07;;;;;;;4.18;2.15;;;;;;;;;;5079584;28;20028;-57
2022/11/09 03:23:33;;;;;;;4.15;1.90;;;;;;;;;;5081427;28;20023;-57
2022/11/09 03:25:58;;;;;;;5.10;2.15;;;;;;;;;;5084459;28;20076;-57
2022/11/09 03:28:23;;;;;;;4.07;2.05;;;;;;;;;;5077374;28;20017;-57
2022/11/09 03:30:48;;;;;;;3.97;2.20;;;;;;;;;;5078127;28;20423;-57
2022/11/09 03:33:13;;;;;;;3.95;1.90;;;;;;;;;;5086067;28;20142;-57
2022/11/09 03:35:39;;;;;;;6.05;2.10;;;;;;;;;;5074944;28;20041;-57
2022/11/09 03:38:04;;;;;;;3.35;1.90;;;;;;;;;;5093432;28;20024;-57
2022/11/09 03:40:29;;;;;;;3.25;1.83;;;;;;;;;;5087393;28;20473;-57
2022/11/09 03:42:55;;;;;;;3.28;2.00;;;;;;;;;;5074618;28;20019;-57
2022/11/09 03:45:20;;;;;;;3.92;1.80;;;;;;;;;;5084396;28;20020;-57
2022/11/09 03:47:45;;;;;;;3.53;1.83;;;;;;;;;;5078440;28;20025;-57
2022/11/09 03:50:11;;;;;;;3.00;1.90;;;;;;;;;;5074767;28;20016;-57
2022/11/09 03:52:36;;;;;;;4.57;1.92;;;;;;;;;;5088446;28;20082;-57
2022/11/09 03:55:02;;;;;;;2.10;1.50;;;;;;;;;;5082797;28;20019;-57
2022/11/09 03:57:27;;;;;;;2.83;1.85;;;;;;;;;;5074296;28;20016;-57
2022/11/09 03:59:52;;;;;;;2.10;1.50;;;;;;;;;;5086210;28;20110;-57
2022/11/09 04:02:17;;;;;;;3.65;1.58;;;;;;;;;;5076190;28;20099;-57
2022/11/09 04:04:43;;;;;;;2.88;1.85;;;;;;;;;;5085069;28;20088;-57
2022/11/09 04:07:11;;;;;;;2.20;1.50;;;;;;;;;;5073583;28;20024;-57
2022/11/09 04:09:36;;;;;;;2.58;1.60;;;;;;;;;;5079994;28;20028;-57
2022/11/09 04:12:02;;;;;;;4.55;1.80;;;;;;;;;;5080313;28;20558;-57
2022/11/09 04:14:28;;;;;;;1.98;1.50;;;;;;;;;;5080629;28;20023;-57
2022/11/09 04:16:53;;;;;;;1.50;1.30;;;;;;;;;;5082029;28;20023;-57
2022/11/09 04:19:18;;;;;;;1.77;1.50;;;;;;;;;;5079072;28;20158;-57
2022/11/09 04:21:43;;;;;;;3.47;1.60;;;;;;;;;;5084364;28;20039;-57
2022/11/09 04:24:15;;;;;;;2.70;1.50;;;;;;;;;;5074989;28;20382;-57
2022/11/09 04:26:40;;;;;;;2.50;1.40;;;;;;;;;;5061674;28;20544;-57
2022/11/09 04:29:05;;;;;;;2.58;1.77;;;;;;;;;;5083992;28;20073;-57
2022/11/09 04:31:31;;;;;;;2.58;1.60;;;;;;;;;;5111173;27;20567;-58
2022/11/09 04:33:56;;;;;;;2.85;1.60;;;;;;;;;;5092642;28;20016;-57
2022/11/09 04:36:21;;;;;;;3.72;1.60;;;;;;;;;;5077857;28;20016;-57
2022/11/09 04:38:46;;;;;;;4.38;1.58;;;;;;;;;;5078516;28;20035;-57
2022/11/09 04:41:11;;;;;;;2.75;1.63;;;;;;;;;;5071730;28;20025;-57
2022/11/09 04:43:37;;;;;;;2.78;1.80;;;;;;;;;;5075565;28;20112;-57
2022/11/09 04:46:02;;;;;;;1.85;1.50;;;;;;;;;;5077427;28;20478;-57
2022/11/09 04:48:28;;;;;;;2.28;1.60;;;;;;;;;;5086219;28;20680;-57
2022/11/09 04:50:58;;;;;;;2.70;1.50;;;;;;;;;;5080516;28;20035;-57
2022/11/09 04:53:23;;;;;;;2.50;1.58;;;;;;;;;;5082062;28;20032;-57
2022/11/09 04:55:48;;;;;;;2.45;1.63;;;;;;;;;;5080135;28;20175;-57
2022/11/09 04:58:13;;;;;;;2.55;1.80;;;;;;;;;;5080088;28;20097;-57
2022/11/09 05:00:39;;;;;;;3.03;1.70;;;;;;;;;;5096960;28;20018;-57
2022/11/09 05:03:05;;;;;;;2.72;1.80;;;;;;;;;;5076723;28;20077;-57
2022/11/09 05:05:31;;;;;;;2.67;1.90;;;;;;;;;;5080076;28;20044;-58
2022/11/09 05:07:56;;;;;;;3.83;1.80;;;;;;;;;;5078977;28;20133;-58
2022/11/09 05:10:22;;;;;;;2.42;1.70;;;;;;;;;;5079044;28;20103;-59
2022/11/09 05:12:47;;;;;;;3.92;1.60;;;;;;;;;;5118972;27;20031;-59
2022/11/09 05:15:12;;;;;;;3.70;1.60;;;;;;;;;;5094614;28;20056;-58
2022/11/09 05:17:37;;;;;;;3.25;1.73;;;;;;;;;;5084736;28;20032;-57
2022/11/09 05:20:03;;;;;;;1.85;1.50;;;;;;;;;;5082940;28;20024;-57
2022/11/09 05:25:12;;;;;;;3.83;1.80;;;;;;;;;;5074225;28;20357;-57
2022/11/09 05:27:37;;;;;;;4.60;1.67;;;;;;;;;;5111165;27;20334;-57
2022/11/09 05:30:03;;;;;;;3.08;1.70;;;;;;;;;;5077556;28;20032;-57
2022/11/09 05:32:28;;;;;;;3.95;2.03;;;;;;;;;;5080199;28;20596;-57
2022/11/09 05:34:53;;;;;;;4.38;1.90;;;;;;;;;;5083643;28;20012;-57
2022/11/09 05:37:21;;;;;;;3.03;1.83;;;;;;;;;;5079452;28;20024;-58
2022/11/09 05:39:46;;;;;;;3.38;1.70;;;;;;;;;;5077666;28;20021;-58
2022/11/09 05:42:11;;;;;;;2.65;1.65;;;;;;;;;;5083456;28;20075;-57
2022/11/09 05:44:36;;;;;;;4.18;1.42;;;;;;;;;;5078704;28;20028;-58
2022/11/09 05:47:02;;;;;;;2.42;1.50;;;;;;;;;;5077665;28;20359;-58
2022/11/09 05:49:27;;;;;;;3.67;1.70;;;;;;;;;;5084027;28;20027;-57
2022/11/09 05:51:52;;;;;;;2.45;1.45;;;;;;;;;;5082227;28;20036;-56
2022/11/09 05:54:17;;;;;;;2.65;1.90;;;;;;;;;;5081045;28;20039;-59
2022/11/09 05:56:42;;;;;;;3.83;1.60;;;;;;;;;;5106566;27;20036;-57
2022/11/09 05:59:08;;;;;;;2.00;1.60;;;;;;;;;;5073284;28;20462;-58
2022/11/09 06:01:33;;;;;;;2.70;1.60;;;;;;;;;;5083279;28;20028;-57
2022/11/09 06:03:58;;;;;;;3.38;1.70;;;;;;;;;;5078769;28;20490;-57
2022/11/09 06:06:23;;;;;;;3.65;1.70;;;;;;;;;;5081990;28;20386;-57
2022/11/09 06:08:49;;;;;;;2.95;1.50;;;;;;;;;;5076326;28;20477;-57
2022/11/09 06:11:14;;;;;;;1.38;1.20;;;;;;;;;;5077910;28;20498;-57
2022/11/09 06:13:40;;;;;;;1.92;1.38;;;;;;;;;;5071782;28;20025;-57
2022/11/09 06:16:05;;;;;;;2.70;1.52;;;;;;;;;;5082706;28;20047;-57
2022/11/09 06:18:31;;;;;;;1.90;1.38;;;;;;;;;;5083534;28;20494;-57
2022/11/09 06:20:57;;;;;;;4.13;1.70;;;;;;;;;;5081669;28;20466;-57
2022/11/09 06:23:25;;;;;;;2.25;1.60;;;;;;;;;;5079083;28;20023;-58
2022/11/09 06:25:52;;;;;;;1.30;1.17;;;;;;;;;;5082970;28;20032;-57
2022/11/09 06:28:17;;;;;;;3.80;1.52;;;;;;;;;;5079828;28;20044;-56
2022/11/09 06:30:42;;;;;;;2.95;1.60;;;;;;;;;;5082782;28;20050;-57
2022/11/09 06:33:07;;;;;;;3.95;1.58;;;;;;;;;;5085664;28;20359;-57
2022/11/09 06:35:33;;;;;;;3.47;1.65;;;;;;;;;;5078277;28;20096;-57
2022/11/09 06:37:58;;;;;;;4.45;1.70;;;;;;;;;;5075525;28;20390;-57
2022/11/09 06:40:23;;;;;;;3.90;1.60;;;;;;;;;;5084031;28;20025;-57
2022/11/09 06:42:49;;;;;;;3.22;1.50;;;;;;;;;;5071661;28;20020;-57
2022/11/09 06:45:14;;;;;;;3.58;1.80;;;;;;;;;;5084790;28;20065;-57
2022/11/09 06:47:39;;;;;;;4.55;1.60;;;;;;;;;;5075770;28;20671;-58
2022/11/09 06:50:04;;;;;;;2.10;1.60;;;;;;;;;;5073922;28;20437;-57
2022/11/09 06:52:30;;;;;;;3.58;1.50;;;;;;;;;;5071487;28;20054;-57
2022/11/09 06:54:55;;;;;;;4.03;1.70;;;;;;;;;;5074895;28;20024;-57
2022/11/09 06:57:20;;;;;;;4.43;1.83;;;;;;;;;;5075792;28;20691;-57
2022/11/09 06:59:45;;;;;;;4.43;1.70;;;;;;;;;;5072497;28;20432;-57
2022/11/09 07:02:12;;;;;;;4.97;1.75;;;;;;;;;;5074174;28;20016;-57
2022/11/09 07:04:38;;;;;;;3.63;1.70;;;;;;;;;;5080150;28;20044;-57
2022/11/09 07:07:03;;;;;;;3.50;1.73;;;;;;;;;;5082167;28;20020;-56
2022/11/09 07:09:29;;;;;;;5.47;1.88;;;;;;;;;;5074309;28;20020;-57
2022/11/09 07:11:54;;;;;;;3.75;1.70;;;;;;;;;;5075072;28;20024;-56
2022/11/09 07:14:21;;;;;;;4.45;1.75;;;;;;;;;;5074875;28;20021;-57
2022/11/09 07:16:46;;;;;;;4.10;1.60;;;;;;;;;;5067490;28;20012;-57
2022/11/09 07:19:12;;;;;;;4.40;1.60;;;;;;;;;;5075657;28;20679;-57
2022/11/09 07:21:37;;;;;;;2.75;1.42;;;;;;;;;;5071049;28;20104;-57
2022/11/09 07:24:03;;;;;;;2.90;1.70;;;;;;;;;;5084902;28;20016;-59
2022/11/09 07:26:28;;;;;;;5.57;2.03;;;;;;;;;;5070359;28;20681;-58
2022/11/09 07:28:53;;;;;;;5.10;1.80;;;;;;;;;;5067810;28;20309;-59
2022/11/09 07:31:18;;;;;;;5.20;2.00;;;;;;;;;;5081004;28;20070;-59
2022/11/09 07:33:44;;;;;;;3.60;1.70;;;;;;;;;;5068287;28;20019;-59
2022/11/09 07:36:09;;;;;;;4.53;1.70;;;;;;;;;;5076423;28;20034;-58
2022/11/09 07:38:34;;;;;;;4.75;1.70;;;;;;;;;;5073884;28;20024;-58
2022/11/09 07:41:00;;;;;;;6.70;1.60;;;;;;;;;;5077064;28;20048;-57
2022/11/09 07:43:25;;;;;;;4.05;1.50;;;;;;;;;;5069963;28;20027;-58
2022/11/09 07:45:50;;;;;;;4.00;2.08;;;;;;;;;;5081017;28;20047;-58
2022/11/09 07:48:15;;;;;;;4.93;2.08;;;;;;;;;;5074478;28;20034;-58
2022/11/09 07:50:41;;;;;;;6.50;1.65;;;;;;;;;;5074618;28;20017;-57
2022/11/09 07:53:06;;;;;;;4.43;2.53;;;;;;;;;;5070421;28;20031;-58
2022/11/09 07:55:31;;;;;;;4.57;1.95;;;;;;;;;;5075916;28;20048;-57
2022/11/09 07:57:57;;;;;;;3.67;1.77;;;;;;;;;;5083095;28;20382;-57
2022/11/09 08:00:23;;;;;;;4.57;1.50;;;;;;;;;;5081569;28;20012;-56
2022/11/09 08:02:48;;;;;;;8.32;1.73;;;;;;;;;;5083021;28;20518;-58
2022/11/09 08:05:14;;;;;;;5.15;1.60;;;;;;;;;;5081347;28;20566;-57
2022/11/09 08:07:39;;;;;;;4.35;1.48;;;;;;;;;;5084914;28;20547;-57
2022/11/09 08:10:04;;;;;;;2.63;1.00;;;;;;;;;;5085776;28;20016;-58
2022/11/09 08:12:29;;;;;;;4.63;1.88;;;;;;;;;;5078122;28;20032;-58
2022/11/09 08:14:55;;;;;;;2.47;1.48;;;;;;;;;;5080474;28;20777;-57
2022/11/09 08:17:20;;;;;;;3.28;1.33;;;;;;;;;;5081882;28;20467;-57
2022/11/09 08:19:45;;;;;;;2.70;1.50;;;;;;;;;;5079183;28;20420;-57
2022/11/09 08:22:10;;;;;;;4.03;1.63;;;;;;;;;;5079620;28;20129;-58
2022/11/09 08:24:36;;;;;;;6.30;1.90;;;;;;;;;;5081120;28;20115;-57
2022/11/09 08:27:01;;;;;;;2.70;1.33;;;;;;;;;;5080710;28;20030;-57
2022/11/09 08:29:26;;;;;;;2.33;1.30;;;;;;;;;;5086694;28;20030;-57
2022/11/09 08:31:51;;;;;;;4.85;1.63;;;;;;;;;;5082604;28;20119;-57
2022/11/09 08:34:17;;;;;;;4.05;1.52;;;;;;;;;;5073188;28;20039;-57
2022/11/09 08:36:42;;;;;;;2.70;1.40;;;;;;;;;;5088113;28;20011;-58
2022/11/09 08:39:08;;;;;;;4.43;1.50;;;;;;;;;;5080194;28;20035;-58
2022/11/09 08:41:33;;;;;;;3.35;1.55;;;;;;;;;;5076723;28;20024;-55
2022/11/09 08:43:58;;;;;;;2.15;1.23;;;;;;;;;;5080454;28;20533;-56
2022/11/09 08:46:24;;;;;;;7.30;1.73;;;;;;;;;;5081303;28;20020;-56
2022/11/09 08:48:49;;;;;;;2.55;1.65;;;;;;;;;;5083281;28;20020;-56
2022/11/09 08:51:14;;;;;;;2.67;1.70;;;;;;;;;;5078569;28;20020;-57
2022/11/09 08:53:39;;;;;;;2.40;1.30;;;;;;;;;;5083270;28;20031;-56
2022/11/09 08:56:06;;;;;;;5.32;1.70;;;;;;;;;;5082212;28;20382;-58
2022/11/09 08:58:31;;;;;;;3.38;1.30;;;;;;;;;;5075052;28;20044;-58
2022/11/09 09:00:56;;;;;;;4.85;1.55;;;;;;;;;;5076167;28;20084;-58
2022/11/09 09:03:21;;;;;;;3.70;1.27;;;;;;;;;;5072456;28;20032;-58
2022/11/09 09:05:47;;;;;;;4.45;1.63;;;;;;;;;;5080275;28;20410;-58
2022/11/09 09:08:14;;;;;;;3.97;1.60;;;;;;;;;;5067674;28;20016;-57
2022/11/09 09:10:39;;;;;;;5.68;1.55;;;;;;;;;;5082371;28;20466;-57
2022/11/09 09:13:04;;;;;;;4.35;1.30;;;;;;;;;;5078339;28;20059;-57
2022/11/09 09:15:30;;;;;;;3.03;1.30;;;;;;;;;;5078235;28;20711;-58
2022/11/09 09:17:55;;;;;;;4.72;1.40;;;;;;;;;;5080001;28;20103;-57
2022/11/09 09:20:20;;;;;;;4.15;1.60;;;;;;;;;;5083821;28;20051;-57
2022/11/09 09:22:45;;;;;;;3.28;1.23;;;;;;;;;;5114690;27;20110;-57
2022/11/09 09:25:11;;;;;;;5.03;1.40;;;;;;;;;;5082211;28;20115;-57
2022/11/09 09:27:36;;;;;;;8.52;1.63;;;;;;;;;;5084877;28;20020;-57
2022/11/09 09:30:01;;;;;;;3.45;1.70;;;;;;;;;;5078147;28;20595;-57
2022/11/09 09:32:28;;;;;;;3.47;1.63;;;;;;;;;;5079175;28;20581;-57
2022/11/09 09:34:53;;;;;;;7.72;1.90;;;;;;;;;;5078140;28;20035;-57
2022/11/09 09:37:18;;;;;;;5.43;1.75;;;;;;;;;;5082724;28;20012;-57
2022/11/09 09:39:43;;;;;;;7.25;1.67;;;;;;;;;;5074524;28;20028;-57
2022/11/09 09:42:16;;;;;;;4.82;1.70;;;;;;;;;;5077233;28;20020;-57
2022/11/09 09:45:00;;;;;;;5.18;1.60;;;;;;;;;;5110818;27;20020;-57
2022/11/09 09:47:44;;;;;;;4.05;1.40;;;;;;;;;;5079491;28;20028;-57
2022/11/09 09:50:13;;;;;;;6.10;1.60;;;;;;;;;;5085592;28;20170;-57
2022/11/09 09:52:59;;;;;;;7.88;1.85;;;;;;;;;;5085623;28;20027;-57
2022/11/09 09:55:28;;;;;;;3.42;1.60;;;;;;;;;;5086658;28;20502;-57
2022/11/09 09:57:54;;;;;;;5.90;1.50;;;;;;;;;;5084870;28;20164;-56
2022/11/09 10:00:21;;;;;;;5.93;1.60;;;;;;;;;;5088100;28;20020;-57
2022/11/09 10:02:48;;;;;;;4.97;1.60;;;;;;;;;;5087550;28;20031;-57
2022/11/09 10:05:14;;;;;;;3.00;1.60;;;;;;;;;;5071566;28;20056;-57
2022/11/09 10:07:39;;;;;;;5.38;1.40;;;;;;;;;;5077823;28;20023;-57
2022/11/09 10:10:23;;;;;;;4.80;1.48;;;;;;;;;;5081925;28;20031;-58
2022/11/09 10:12:53;;;;;;;7.93;1.95;;;;;;;;;;5070901;28;20036;-57
2022/11/09 10:15:27;;;;;;;5.15;1.80;;;;;;;;;;5079795;28;20067;-57
2022/11/09 10:18:11;;;;;;;4.57;1.30;;;;;;;;;;5082245;28;20028;-56
2022/11/09 10:20:48;;;;;;;5.28;1.67;;;;;;;;;;5082336;28;20035;-57
2022/11/09 10:23:17;;;;;;;3.85;1.55;;;;;;;;;;5084424;28;20232;-56
2022/11/09 10:25:42;;;;;;;5.25;1.58;;;;;;;;;;5086710;28;20097;-56
2022/11/09 10:28:09;;;;;;;5.28;1.75;;;;;;;;;;5070451;28;20043;-57
2022/11/09 10:30:34;;;;;;;3.35;1.58;;;;;;;;;;5090782;28;20501;-56
2022/11/09 10:33:12;;;;;;;4.95;1.70;;;;;;;;;;5087335;28;20039;-57
2022/11/09 10:35:38;;;;;;;5.32;1.60;;;;;;;;;;5116743;27;20016;-57
2022/11/09 10:38:04;;;;;;;4.32;1.60;;;;;;;;;;5081046;28;20189;-57
2022/11/09 10:40:30;;;;;;;5.07;1.73;;;;;;;;;;5080832;28;20346;-57
2022/11/09 10:42:59;;;;;;;5.68;1.70;;;;;;;;;;5083492;28;20095;-57
2022/11/09 10:45:26;;;;;;;7.68;2.03;;;;;;;;;;5085369;28;20149;-58
2022/11/09 10:47:51;;;;;;;10.13;1.85;;;;;;;;;;5085542;28;20016;-58
2022/11/09 10:50:35;;;;;;;5.97;1.80;;;;;;;;;;5083837;28;20583;-54
2022/11/09 10:53:30;;;;;;;6.78;2.17;;;;;;;;;;5078435;28;20032;-56
2022/11/09 10:56:04;;;;;;;8.35;1.90;;;;;;;;;;5072162;28;20023;-56
2022/11/09 10:58:32;;;;;;;9.50;1.90;;;;;;;;;;5081673;28;20091;-57
2022/11/09 11:01:00;;;;;;;4.90;1.60;;;;;;;;;;5089201;28;20065;-58
2022/11/09 11:03:26;;;;;;;4.28;1.50;;;;;;;;;;5086768;28;20386;-57
2022/11/09 11:06:17;;;;;;;5.03;1.52;;;;;;;;;;5091309;28;20146;-57
2022/11/09 11:09:02;;;;;;;4.88;1.63;;;;;;;;;;5075595;28;20028;-57
2022/11/09 11:11:28;;;;;;;5.05;1.50;;;;;;;;;;5083459;28;20040;-58
2022/11/09 11:14:05;;;;;;;7.63;1.90;;;;;;;;;;5109709;27;20016;-55
2022/11/09 11:16:31;;;;;;;4.40;1.48;;;;;;;;;;5074166;28;20035;-57
2022/11/09 11:18:57;;;;;;;5.40;1.58;;;;;;;;;;5088782;28;20031;-57
2022/11/09 11:21:24;;;;;;;6.43;1.50;;;;;;;;;;5086226;28;20028;-57
2022/11/09 11:24:02;;;;;;;7.07;1.75;;;;;;;;;;5090291;28;20016;-58
2022/11/09 11:26:34;;;;;;;5.57;2.05;;;;;;;;;;5074004;28;20033;-57
2022/11/09 11:29:00;;;;;;;12.27;2.17;;;;;;;;;;5083842;28;20044;-57
2022/11/09 11:31:25;;;;;;;5.65;1.70;;;;;;;;;;5078734;28;20063;-57
2022/11/09 11:33:51;;;;;;;6.40;1.63;;;;;;;;;;5082554;28;20110;-56
2022/11/09 11:36:38;;;;;;;5.25;1.67;;;;;;;;;;5077810;28;20123;-57
2022/11/09 11:39:14;;;;;;;7.22;1.70;;;;;;;;;;5086021;28;20209;-57
2022/11/09 11:41:42;;;;;;;5.00;1.65;;;;;;;;;;5082160;28;20024;-56
2022/11/09 11:44:17;;;;;;;4.15;1.70;;;;;;;;;;5076272;28;20100;-58
2022/11/09 11:46:46;;;;;;;5.93;1.73;;;;;;;;;;5080169;28;20024;-58
2022/11/09 11:49:20;;;;;;;5.68;1.73;;;;;;;;;;5085643;28;20518;-56
2022/11/09 11:52:06;;;;;;;8.02;1.90;;;;;;;;;;5083246;28;20313;-56
2022/11/09 11:54:35;;;;;;;7.88;1.70;;;;;;;;;;5064013;28;20120;-57
2022/11/09 11:57:04;;;;;;;8.55;1.50;;;;;;;;;;5086905;28;20034;-56
2022/11/09 11:59:38;;;;;;;4.28;1.40;;;;;;;;;;5084848;28;20013;-56
2022/11/09 12:02:09;;;;;;;4.65;1.70;;;;;;;;;;5074180;28;20143;-57
2022/11/09 12:04:39;;;;;;;7.88;1.90;;;;;;;;;;5079372;28;20503;-57
2022/11/09 12:07:23;;;;;;;9.77;1.85;;;;;;;;;;5084106;28;20046;-57
2022/11/09 12:09:52;;;;;;;9.60;1.77;;;;;;;;;;5087673;28;20077;-57
2022/11/09 12:12:30;;;;;;;5.38;1.65;;;;;;;;;;5080679;28;20111;-56
2022/11/09 12:14:56;;;;;;;2.17;1.17;;;;;;;;;;5074376;28;20027;-57
2022/11/09 12:17:33;;;;;;;5.28;1.67;;;;;;;;;;5078053;28;20035;-56
2022/11/09 12:20:16;;;;;;;5.00;1.52;;;;;;;;;;5084486;28;20027;-57
2022/11/09 12:23:00;;;;;;;6.13;1.50;;;;;;;;;;5086503;28;20458;-57
2022/11/09 12:25:35;;;;;;;6.13;2.17;;;;;;;;;;5086048;28;20024;-57
2022/11/09 12:28:19;;;;;;;8.35;1.50;;;;;;;;;;5087520;27;20016;-56
2022/11/09 12:31:00;;;;;;;8.30;1.80;;;;;;;;;;5077566;28;20162;-57
2022/11/09 12:33:45;;;;;;;4.78;1.50;;;;;;;;;;5070429;28;20025;-56
2022/11/09 12:36:12;;;;;;;4.88;1.67;;;;;;;;;;5083229;28;20044;-57
2022/11/09 12:38:40;;;;;;;7.15;1.70;;;;;;;;;;5074609;28;20432;-56
2022/11/09 12:41:13;;;;;;;6.15;1.67;;;;;;;;;;5074739;28;20138;-57
2022/11/09 12:43:38;;;;;;;5.65;1.60;;;;;;;;;;5074960;28;20019;-56
2022/11/09 12:46:04;;;;;;;4.75;1.48;;;;;;;;;;5070147;28;20067;-57
2022/11/09 12:48:33;;;;;;;7.45;1.77;;;;;;;;;;5070834;28;20020;-55
2022/11/09 12:51:02;;;;;;;5.78;1.73;;;;;;;;;;5084646;28;20675;-57
2022/11/09 12:53:29;;;;;;;8.80;2.10;;;;;;;;;;5104546;27;20028;-57
2022/11/09 12:55:54;;;;;;;6.35;1.75;;;;;;;;;;5075613;28;20085;-56
2022/11/09 12:58:25;;;;;;;4.25;1.70;;;;;;;;;;5067154;28;20489;-63
2022/11/09 13:00:55;;;;;;;7.13;1.85;;;;;;;;;;5081081;28;20064;-57
2022/11/09 13:03:21;;;;;;;8.73;2.05;;;;;;;;;;5078530;28;20028;-58
2022/11/09 13:05:48;;;;;;;5.20;1.60;;;;;;;;;;5121975;27;20039;-55
2022/11/09 13:08:17;;;;;;;5.93;1.50;;;;;;;;;;5078072;28;20311;-55
2022/11/09 13:10:43;;;;;;;8.73;2.00;;;;;;;;;;5078470;28;20118;-55
2022/11/09 13:13:13;;;;;;;6.30;1.77;;;;;;;;;;5076495;28;20553;-56
2022/11/09 13:15:39;;;;;;;5.40;1.80;;;;;;;;;;5076817;28;20042;-54
2022/11/09 13:18:04;;;;;;;6.22;1.77;;;;;;;;;;5094620;28;20469;-55
2022/11/09 13:20:39;;;;;;;7.80;1.92;;;;;;;;;;5087546;28;20657;-55
2022/11/09 13:23:23;;;;;;;7.85;1.65;;;;;;;;;;5077825;28;20043;-55
2022/11/09 13:25:51;;;;;;;3.35;1.50;;;;;;;;;;5078062;28;20462;-56
2022/11/09 13:28:29;;;;;;;5.10;1.75;;;;;;;;;;5077131;28;20020;-56
2022/11/09 13:30:56;;;;;;;5.93;1.60;;;;;;;;;;5074394;28;20016;-54
2022/11/09 13:33:31;;;;;;;6.63;1.60;;;;;;;;;;5075910;28;20401;-57
2022/11/09 13:36:05;;;;;;;17.15;2.28;;;;;;;;;;5074783;28;20024;-57
2022/11/09 13:38:31;;;;;;;5.03;2.00;;;;;;;;;;5081979;28;20086;-56
2022/11/09 13:40:56;;;;;;;7.53;2.20;;;;;;;;;;5077186;28;20781;-56
2022/11/09 13:43:31;;;;;;;3.70;1.70;;;;;;;;;;5107083;27;20100;-56
2022/11/09 13:46:00;;;;;;;8.18;1.80;;;;;;;;;;5074134;28;20389;-55
2022/11/09 13:48:31;;;;;;;7.72;1.80;;;;;;;;;;5084958;28;20490;-56
2022/11/09 13:50:57;;;;;;;8.38;1.65;;;;;;;;;;5076782;28;20032;-55
2022/11/09 13:53:25;;;;;;;7.22;2.75;;;;;;;;;;5086404;28;20028;-56
2022/11/09 13:55:50;;;;;;;12.45;2.25;;;;;;;;;;5067101;28;20021;-55
2022/11/09 13:58:16;;;;;;;5.22;1.92;;;;;;;;;;5082444;28;20035;-55
2022/11/09 14:00:45;;;;;;;5.50;1.80;;;;;;;;;;5075818;28;20453;-56
2022/11/09 14:03:19;;;;;;;5.80;1.85;;;;;;;;;;5067408;28;20012;-56
2022/11/09 14:05:44;;;;;;;8.82;2.00;;;;;;;;;;5071062;28;20087;-57
2022/11/09 14:08:15;;;;;;;8.82;2.30;;;;;;;;;;5077344;28;20020;-55
2022/11/09 14:10:44;;;;;;;6.95;2.03;;;;;;;;;;5069671;28;20028;-55
2022/11/09 14:13:16;;;;;;;5.20;1.70;;;;;;;;;;5072312;28;20128;-56
2022/11/09 14:15:44;;;;;;;7.47;2.20;;;;;;;;;;5077927;28;20031;-56
2022/11/09 14:18:18;;;;;;;8.15;1.90;;;;;;;;;;5082647;28;20028;-56
2022/11/09 14:20:43;;;;;;;5.78;2.10;;;;;;;;;;5080744;28;20053;-56
2022/11/09 14:23:19;;;;;;;7.78;1.80;;;;;;;;;;5080370;28;20024;-56
2022/11/09 14:25:44;;;;;;;6.25;1.92;;;;;;;;;;5076024;28;20099;-55
2022/11/09 14:28:28;;;;;;;7.15;1.90;;;;;;;;;;5072158;28;20059;-56
2022/11/09 14:30:54;;;;;;;8.85;1.88;;;;;;;;;;5074315;28;20016;-55
2022/11/09 14:33:26;;;;;;;9.40;1.83;;;;;;;;;;5076874;28;20618;-56
2022/11/09 14:35:51;;;;;;;5.38;2.10;;;;;;;;;;5078682;28;20035;-56
2022/11/09 14:38:21;;;;;;;10.82;2.10;;;;;;;;;;5076203;28;20469;-56
2022/11/09 14:40:47;;;;;;;6.30;1.80;;;;;;;;;;5077994;28;20016;-55
2022/11/09 14:43:15;;;;;;;8.02;1.80;;;;;;;;;;5079591;28;20016;-55
2022/11/09 14:45:50;;;;;;;10.55;2.28;;;;;;;;;;5110716;27;20016;-58
2022/11/09 14:48:16;;;;;;;5.15;1.65;;;;;;;;;;5106324;27;20040;-58